METAR Data
IDs: Format: Raw Decoded Include TAF

Data at: 2119 UTC 08 Aug 2020

KPAN 082115Z AUTO VRB06G13KT 10SM CLR 33/04 A3019 RMK AO2
KPAN 082055Z AUTO 20008G16KT 150V220 10SM FEW120 33/05 A3020 RMK AO2
KPAN 082035Z AUTO VRB05G14KT 10SM CLR 32/04 A3020 RMK AO2
KPAN 082015Z AUTO 22012G18KT 10SM FEW100 33/04 A3020 RMK AO2
KPAN 081955Z AUTO 25010KT 10SM CLR 32/05 A3022 RMK AO2
KPAN 081935Z AUTO 23008G16KT 200V270 10SM CLR 32/05 A3022 RMK AO2
KPAN 081915Z AUTO VRB06G16KT 10SM CLR 32/06 A3023 RMK AO2
KPAN 081855Z AUTO 26009G16KT 190V300 10SM CLR 32/06 A3023 RMK AO2
KPAN 081835Z AUTO 23006G14KT 10SM CLR 31/06 A3024 RMK AO2
KPAN 081815Z AUTO 24009G14KT 10SM CLR 32/06 A3025 RMK AO2
KPAN 081755Z AUTO 25008G13KT 220V290 10SM CLR 31/06 A3025 RMK AO2
KPAN 081735Z AUTO VRB05G11KT 10SM CLR 31/06 A3025 RMK AO2
KPAN 081715Z AUTO VRB03G11KT 10SM CLR 30/06 A3025 RMK AO2
KPAN 081655Z AUTO VRB04KT 10SM CLR 30/06 A3025 RMK AO2
KPAN 081635Z AUTO 00000G10KT 10SM CLR 30/07 A3025 RMK AO2
KPAN 081615Z AUTO VRB04KT 10SM CLR 29/06 A3025 RMK AO2
KPAN 081555Z AUTO 00000KT 10SM CLR 29/06 A3025 RMK AO2
KPAN 081535Z AUTO 00000KT 10SM CLR 28/06 A3025 RMK AO2
KPAN 081515Z AUTO 00000KT 10SM CLR 27/06 A3025 RMK AO2
KPAN 081455Z AUTO 00000KT 10SM CLR 25/07 A3025 RMK AO2
KPAN 081435Z AUTO 00000KT 10SM CLR 24/07 A3025 RMK AO2
KPAN 081415Z AUTO 00000KT 10SM CLR 23/07 A3025 RMK AO2
KPAN 081355Z AUTO 00000KT 10SM CLR 21/06 A3024 RMK AO2
KPAN 081335Z AUTO 00000KT 10SM CLR 20/06 A3024 RMK AO2
KPAN 081315Z AUTO 00000KT 10SM CLR 21/05 A3024 RMK AO2
KPAN 081255Z AUTO 00000KT 10SM CLR 19/05 A3023 RMK AO2
KPAN 081235Z AUTO 00000KT 10SM CLR 19/05 A3023 RMK AO2
KPAN 081215Z AUTO 00000KT 10SM CLR 19/05 A3022 RMK AO2
KPAN 081155Z AUTO 00000KT 10SM FEW100 18/04 A3022 RMK AO2
KPAN 081135Z AUTO 00000KT 10SM CLR 18/05 A3022 RMK AO2
KPAN 081115Z AUTO 34003KT 10SM CLR 20/04 A3021 RMK AO2
KPAN 081055Z AUTO 00000KT 10SM CLR 20/05 A3021 RMK AO2
KPAN 081035Z AUTO 00000KT 10SM CLR 20/05 A3021 RMK AO2
KPAN 081015Z AUTO 00000KT 10SM CLR 20/05 A3021 RMK AO2
KPAN 080955Z AUTO 00000KT 10SM CLR 20/04 A3021 RMK AO2
KPAN 080935Z AUTO 00000KT 10SM CLR 20/04 A3020 RMK AO2
KPAN 080915Z AUTO 00000KT 10SM CLR 21/04 A3020 RMK AO2
KPAN 080855Z AUTO 00000KT 10SM CLR 21/03 A3020 RMK AO2
KPAN 080835Z AUTO 00000KT 10SM CLR 20/03 A3020 RMK AO2
KPAN 080815Z AUTO 00000KT 10SM CLR 20/03 A3020 RMK AO2
KPAN 080755Z AUTO 00000KT 10SM CLR 21/03 A3020 RMK AO2
KPAN 080735Z AUTO 00000KT 10SM CLR 21/03 A3021 RMK AO2
KPAN 080715Z AUTO 00000KT 10SM CLR 22/03 A3021 RMK AO2
KPAN 080655Z AUTO 00000KT 10SM CLR 22/03 A3021 RMK AO2
KPAN 080635Z AUTO 00000KT 10SM CLR 22/03 A3021 RMK AO2
KPAN 080615Z AUTO 00000KT 10SM CLR 23/03 A3021 RMK AO2
KPAN 080555Z AUTO 00000KT 10SM CLR 23/03 A3021 RMK AO2
KPAN 080535Z AUTO 00000KT 10SM CLR 23/04 A3021 RMK AO2
KPAN 080515Z AUTO 00000KT 10SM CLR 24/04 A3021 RMK AO2
KPAN 080455Z AUTO 00000KT 10SM CLR 25/04 A3021 RMK AO2
KPAN 080435Z AUTO 23004KT 10SM CLR 26/04 A3020 RMK AO2
KPAN 080415Z AUTO 22003KT 10SM CLR 25/03 A3020 RMK AO2
KPAN 080355Z AUTO 00000KT 10SM CLR 26/03 A3020 RMK AO2
KPAN 080335Z AUTO 23004KT 10SM CLR 27/03 A3019 RMK AO2
KPAN 080315Z AUTO 23005KT 10SM CLR 27/03 A3018 RMK AO2
KPAN 080255Z AUTO 24005KT 10SM CLR 27/02 A3018 RMK AO2
KPAN 080235Z AUTO 22005KT 10SM CLR 28/02 A3017 RMK AO2
KPAN 080215Z AUTO 24006KT 10SM CLR 28/02 A3016 RMK AO2
KPAN 080155Z AUTO 24005G14KT 10SM CLR 29/02 A3016 RMK AO2
KPAN 080135Z AUTO 26007KT 230V300 10SM CLR 30/00 A3016 RMK AO2
KPAN 080115Z AUTO 24007G15KT 10SM CLR 31/M01 A3016 RMK AO2
KPAN 080055Z AUTO 24010G17KT 10SM CLR 31/M02 A3016 RMK AO2
KPAN 080035Z AUTO 23010KT 10SM CLR 31/M01 A3015 RMK AO2
KPAN 080015Z AUTO 26010G15KT 210V280 10SM CLR 31/00 A3015 RMK AO2
KPAN 072355Z AUTO 25007G19KT 220V280 10SM CLR 32/00 A3015 RMK AO2
KPAN 072335Z AUTO 24014G20KT 10SM CLR 32/M01 A3016 RMK AO2
KPAN 072315Z AUTO 24012G21KT 10SM CLR 32/00 A3016 RMK AO2
KPAN 072255Z AUTO 26014G19KT 10SM CLR 32/00 A3016 RMK AO2
KPAN 072235Z AUTO 24007G15KT 200V270 10SM CLR 32/00 A3017 RMK AO2
KPAN 072215Z AUTO 26009G16KT 10SM CLR 32/01 A3017 RMK AO2
KPAN 072155Z AUTO 26013G19KT 200V290 10SM CLR 32/M00 A3017 RMK AO2
KPAN 072135Z AUTO 25012G17KT 220V300 10SM CLR 32/M01 A3018 RMK AO2
KPAN 072115Z AUTO 24010G16KT 10SM CLR 32/M00 A3018 RMK AO2
KPAN 072055Z AUTO 25013G20KT 10SM CLR 31/M02 A3019 RMK AO2
KPAN 072035Z AUTO 22010G16KT 10SM CLR 31/M01 A3019 RMK AO2
KPAN 072015Z AUTO 23009G17KT 190V250 10SM CLR 32/M02 A3019 RMK AO2
KPAN 071955Z AUTO 27008G13KT 250V320 10SM CLR 32/01 A3019 RMK AO2
KPAN 071935Z AUTO VRB06G13KT 10SM CLR 31/02 A3020 RMK AO2
KPAN 071915Z AUTO 25007G12KT 230V290 10SM CLR 30/02 A3020 RMK AO2
KPAN 071855Z AUTO 25008G14KT 230V290 10SM CLR 30/01 A3020 RMK AO2
KPAN 071835Z AUTO 23010KT 180V250 10SM CLR 30/01 A3021 RMK AO2
KPAN 071815Z AUTO 21008KT 10SM CLR 29/02 A3021 RMK AO2
KPAN 071755Z AUTO VRB05KT 10SM CLR 29/02 A3021 RMK AO2
KPAN 071735Z AUTO 00000G12KT 10SM CLR 28/02 A3022 RMK AO2
KPAN 071715Z AUTO VRB06G12KT 10SM CLR 29/01 A3022 RMK AO2
KPAN 071655Z AUTO VRB06KT 10SM CLR 28/M00 A3022 RMK AO2
KPAN 071635Z AUTO VRB05KT 10SM CLR 28/M01 A3021 RMK AO2
KPAN 071615Z AUTO 19006KT 10SM CLR 27/M01 A3021 RMK AO2
KPAN 071555Z AUTO VRB05KT 10SM CLR 28/M01 A3020 RMK AO2
KPAN 071535Z AUTO VRB05KT 10SM CLR 28/M01 A3019 RMK AO2
KPAN 071515Z AUTO 00000KT 10SM CLR 27/01 A3019 RMK AO2
KPAN 071455Z AUTO 00000KT 10SM CLR 26/M00 A3019 RMK AO2
KPAN 071435Z AUTO 00000KT 10SM CLR 22/02 A3018 RMK AO2
KPAN 071415Z AUTO 00000KT 10SM CLR 21/01 A3017 RMK AO2
KPAN 071355Z AUTO 00000KT 10SM CLR 20/01 A3017 RMK AO2
KPAN 071335Z AUTO 00000KT 10SM CLR 19/M00 A3017 RMK AO2
KPAN 071315Z AUTO 00000KT 10SM CLR 18/M00 A3016 RMK AO2
KPAN 071255Z AUTO 00000KT 10SM CLR 18/M01 A3016 RMK AO2
KPAN 071235Z AUTO 00000KT 10SM CLR 18/M01 A3015 RMK AO2
KPAN 071215Z AUTO 00000KT 10SM CLR 18/M01 A3014 RMK AO2
KPAN 071155Z AUTO 00000KT 10SM CLR 18/M01 A3014 RMK AO2
KPAN 071135Z AUTO 00000KT 10SM CLR 18/M01 A3014 RMK AO2
KPAN 071115Z AUTO 00000KT 10SM CLR 18/M01 A3013 RMK AO2
KPAN 071055Z AUTO 00000KT 10SM CLR 18/M01 A3013 RMK AO2
KPAN 071035Z AUTO 00000KT 10SM CLR 19/M01 A3013 RMK AO2
KPAN 071015Z AUTO 00000KT 10SM CLR 19/M01 A3013 RMK AO2
KPAN 070955Z AUTO 00000KT 10SM CLR 18/M01 A3013 RMK AO2
KPAN 070935Z AUTO 00000KT 10SM CLR 18/M01 A3012 RMK AO2